sensor_id;sensor_type;location;lat;lon;timestamp;P1;durP1;ratioP1;P2;durP2;ratioP2
7316;SDS011;3699;51.462;6.696;2024-01-11T00:01:19;46.67;;;22.47;;
7316;SDS011;3699;51.462;6.696;2024-01-11T00:03:47;47.50;;;22.90;;
7316;SDS011;3699;51.462;6.696;2024-01-11T00:06:14;57.10;;;24.13;;
7316;SDS011;3699;51.462;6.696;2024-01-11T00:08:41;55.70;;;24.53;;
7316;SDS011;3699;51.462;6.696;2024-01-11T00:11:07;49.37;;;23.40;;
7316;SDS011;3699;51.462;6.696;2024-01-11T00:13:34;61.30;;;23.70;;
7316;SDS011;3699;51.462;6.696;2024-01-11T00:16:01;50.77;;;22.97;;
7316;SDS011;3699;51.462;6.696;2024-01-11T00:18:28;48.33;;;23.07;;
7316;SDS011;3699;51.462;6.696;2024-01-11T00:20:56;64.70;;;24.50;;
7316;SDS011;3699;51.462;6.696;2024-01-11T00:23:23;48.33;;;24.37;;
7316;SDS011;3699;51.462;6.696;2024-01-11T00:25:49;49.83;;;23.33;;
7316;SDS011;3699;51.462;6.696;2024-01-11T00:28:16;52.80;;;24.30;;
7316;SDS011;3699;51.462;6.696;2024-01-11T00:30:43;53.77;;;22.77;;
7316;SDS011;3699;51.462;6.696;2024-01-11T00:33:10;49.80;;;23.07;;
7316;SDS011;3699;51.462;6.696;2024-01-11T00:35:36;50.97;;;23.90;;
7316;SDS011;3699;51.462;6.696;2024-01-11T00:38:04;53.33;;;24.23;;
7316;SDS011;3699;51.462;6.696;2024-01-11T00:40:31;51.40;;;24.90;;
7316;SDS011;3699;51.462;6.696;2024-01-11T00:42:58;48.90;;;24.00;;
7316;SDS011;3699;51.462;6.696;2024-01-11T00:45:25;51.17;;;24.63;;
7316;SDS011;3699;51.462;6.696;2024-01-11T00:47:51;59.57;;;25.50;;
7316;SDS011;3699;51.462;6.696;2024-01-11T00:50:18;56.00;;;25.47;;
7316;SDS011;3699;51.462;6.696;2024-01-11T00:52:45;47.93;;;23.77;;
7316;SDS011;3699;51.462;6.696;2024-01-11T00:55:13;52.53;;;24.13;;
7316;SDS011;3699;51.462;6.696;2024-01-11T00:57:41;50.33;;;23.90;;
7316;SDS011;3699;51.462;6.696;2024-01-11T01:00:08;55.50;;;25.20;;
7316;SDS011;3699;51.462;6.696;2024-01-11T01:02:38;58.50;;;26.37;;
7316;SDS011;3699;51.462;6.696;2024-01-11T01:05:06;54.33;;;24.37;;
7316;SDS011;3699;51.462;6.696;2024-01-11T01:07:33;54.33;;;24.40;;
7316;SDS011;3699;51.462;6.696;2024-01-11T01:10:00;53.47;;;24.10;;
7316;SDS011;3699;51.462;6.696;2024-01-11T01:12:28;54.10;;;24.30;;
7316;SDS011;3699;51.462;6.696;2024-01-11T01:14:54;51.77;;;24.17;;
7316;SDS011;3699;51.462;6.696;2024-01-11T01:17:21;50.27;;;24.63;;
7316;SDS011;3699;51.462;6.696;2024-01-11T01:19:48;57.20;;;25.50;;
7316;SDS011;3699;51.462;6.696;2024-01-11T01:22:15;54.97;;;25.73;;
7316;SDS011;3699;51.462;6.696;2024-01-11T01:24:41;58.63;;;24.13;;
7316;SDS011;3699;51.462;6.696;2024-01-11T01:27:08;52.00;;;24.03;;
7316;SDS011;3699;51.462;6.696;2024-01-11T01:29:36;53.30;;;25.37;;
7316;SDS011;3699;51.462;6.696;2024-01-11T01:32:03;62.00;;;27.07;;
7316;SDS011;3699;51.462;6.696;2024-01-11T01:34:30;56.27;;;25.60;;
7316;SDS011;3699;51.462;6.696;2024-01-11T01:36:57;56.70;;;24.33;;
7316;SDS011;3699;51.462;6.696;2024-01-11T01:39:24;55.60;;;25.63;;
7316;SDS011;3699;51.462;6.696;2024-01-11T01:41:51;59.40;;;25.57;;
7316;SDS011;3699;51.462;6.696;2024-01-11T01:44:17;59.20;;;25.53;;
7316;SDS011;3699;51.462;6.696;2024-01-11T01:46:45;58.00;;;25.40;;
7316;SDS011;3699;51.462;6.696;2024-01-11T01:49:14;60.73;;;25.40;;
7316;SDS011;3699;51.462;6.696;2024-01-11T01:51:43;59.77;;;27.67;;
7316;SDS011;3699;51.462;6.696;2024-01-11T01:54:09;62.07;;;27.93;;
7316;SDS011;3699;51.462;6.696;2024-01-11T01:56:36;57.57;;;26.30;;
7316;SDS011;3699;51.462;6.696;2024-01-11T01:59:03;60.30;;;27.40;;
7316;SDS011;3699;51.462;6.696;2024-01-11T02:01:30;71.00;;;26.43;;
7316;SDS011;3699;51.462;6.696;2024-01-11T02:03:59;57.87;;;27.80;;
7316;SDS011;3699;51.462;6.696;2024-01-11T02:06:26;53.00;;;26.40;;
7316;SDS011;3699;51.462;6.696;2024-01-11T02:08:57;56.33;;;27.17;;
7316;SDS011;3699;51.462;6.696;2024-01-11T02:11:26;60.67;;;27.53;;
7316;SDS011;3699;51.462;6.696;2024-01-11T02:13:54;56.93;;;24.63;;
7316;SDS011;3699;51.462;6.696;2024-01-11T02:16:22;54.70;;;24.80;;
7316;SDS011;3699;51.462;6.696;2024-01-11T02:18:49;60.07;;;26.57;;
7316;SDS011;3699;51.462;6.696;2024-01-11T02:21:17;66.90;;;28.33;;
7316;SDS011;3699;51.462;6.696;2024-01-11T02:26:22;60.83;;;25.30;;
7316;SDS011;3699;51.462;6.696;2024-01-11T02:28:49;59.53;;;26.07;;
7316;SDS011;3699;51.462;6.696;2024-01-11T02:31:16;59.10;;;26.67;;
7316;SDS011;3699;51.462;6.696;2024-01-11T02:33:43;63.67;;;27.10;;
7316;SDS011;3699;51.462;6.696;2024-01-11T02:36:10;58.90;;;26.03;;
7316;SDS011;3699;51.462;6.696;2024-01-11T02:38:36;64.27;;;28.33;;
7316;SDS011;3699;51.462;6.696;2024-01-11T02:41:06;63.47;;;26.93;;
7316;SDS011;3699;51.462;6.696;2024-01-11T02:43:34;55.47;;;25.13;;
7316;SDS011;3699;51.462;6.696;2024-01-11T02:46:01;59.97;;;25.93;;
7316;SDS011;3699;51.462;6.696;2024-01-11T02:48:28;60.90;;;27.33;;
7316;SDS011;3699;51.462;6.696;2024-01-11T02:50:55;60.33;;;26.13;;
7316;SDS011;3699;51.462;6.696;2024-01-11T02:53:22;54.33;;;25.43;;
7316;SDS011;3699;51.462;6.696;2024-01-11T02:55:49;58.57;;;26.63;;
7316;SDS011;3699;51.462;6.696;2024-01-11T02:58:17;54.77;;;24.60;;
7316;SDS011;3699;51.462;6.696;2024-01-11T03:00:44;54.40;;;24.97;;
7316;SDS011;3699;51.462;6.696;2024-01-11T03:03:10;53.73;;;25.63;;
7316;SDS011;3699;51.462;6.696;2024-01-11T03:05:37;57.40;;;26.07;;
7316;SDS011;3699;51.462;6.696;2024-01-11T03:08:04;62.50;;;25.90;;
7316;SDS011;3699;51.462;6.696;2024-01-11T03:10:31;52.50;;;24.90;;
7316;SDS011;3699;51.462;6.696;2024-01-11T03:12:58;58.97;;;26.17;;
7316;SDS011;3699;51.462;6.696;2024-01-11T03:15:26;62.57;;;27.00;;
7316;SDS011;3699;51.462;6.696;2024-01-11T03:17:52;60.60;;;26.77;;
7316;SDS011;3699;51.462;6.696;2024-01-11T03:20:19;63.57;;;26.53;;
7316;SDS011;3699;51.462;6.696;2024-01-11T03:22:49;56.33;;;25.53;;
7316;SDS011;3699;51.462;6.696;2024-01-11T03:25:16;57.30;;;25.00;;
7316;SDS011;3699;51.462;6.696;2024-01-11T03:27:43;55.47;;;26.20;;
7316;SDS011;3699;51.462;6.696;2024-01-11T03:30:11;58.10;;;26.70;;
7316;SDS011;3699;51.462;6.696;2024-01-11T03:32:39;60.93;;;27.57;;
7316;SDS011;3699;51.462;6.696;2024-01-11T03:35:07;54.93;;;25.47;;
7316;SDS011;3699;51.462;6.696;2024-01-11T03:37:34;58.50;;;26.80;;
7316;SDS011;3699;51.462;6.696;2024-01-11T03:40:01;56.83;;;24.37;;
7316;SDS011;3699;51.462;6.696;2024-01-11T03:42:28;61.40;;;26.50;;
7316;SDS011;3699;51.462;6.696;2024-01-11T03:44:55;64.23;;;25.67;;
7316;SDS011;3699;51.462;6.696;2024-01-11T03:47:22;67.73;;;27.83;;
7316;SDS011;3699;51.462;6.696;2024-01-11T03:49:50;57.33;;;26.40;;
7316;SDS011;3699;51.462;6.696;2024-01-11T03:52:17;69.73;;;26.70;;
7316;SDS011;3699;51.462;6.696;2024-01-11T03:54:43;64.80;;;26.23;;
7316;SDS011;3699;51.462;6.696;2024-01-11T03:57:10;54.10;;;25.87;;
7316;SDS011;3699;51.462;6.696;2024-01-11T03:59:37;57.13;;;27.33;;
7316;SDS011;3699;51.462;6.696;2024-01-11T04:02:03;58.20;;;26.50;;
7316;SDS011;3699;51.462;6.696;2024-01-11T04:04:30;54.83;;;25.53;;
7316;SDS011;3699;51.462;6.696;2024-01-11T04:06:58;72.70;;;28.27;;
7316;SDS011;3699;51.462;6.696;2024-01-11T04:09:25;60.67;;;26.33;;
7316;SDS011;3699;51.462;6.696;2024-01-11T04:11:52;56.70;;;25.40;;
7316;SDS011;3699;51.462;6.696;2024-01-11T04:14:19;60.30;;;27.17;;
7316;SDS011;3699;51.462;6.696;2024-01-11T04:16:46;66.27;;;27.80;;
7316;SDS011;3699;51.462;6.696;2024-01-11T04:19:12;54.90;;;25.47;;
7316;SDS011;3699;51.462;6.696;2024-01-11T04:21:39;58.13;;;26.87;;
7316;SDS011;3699;51.462;6.696;2024-01-11T04:24:07;59.23;;;26.93;;
7316;SDS011;3699;51.462;6.696;2024-01-11T04:26:34;73.13;;;28.67;;
7316;SDS011;3699;51.462;6.696;2024-01-11T04:29:01;68.67;;;28.27;;
7316;SDS011;3699;51.462;6.696;2024-01-11T04:31:28;57.13;;;27.00;;
7316;SDS011;3699;51.462;6.696;2024-01-11T04:33:54;61.30;;;25.93;;
7316;SDS011;3699;51.462;6.696;2024-01-11T04:36:21;59.30;;;26.17;;
7316;SDS011;3699;51.462;6.696;2024-01-11T04:38:48;58.10;;;25.47;;
7316;SDS011;3699;51.462;6.696;2024-01-11T04:41:16;61.87;;;26.43;;
7316;SDS011;3699;51.462;6.696;2024-01-11T04:43:43;59.23;;;25.73;;
7316;SDS011;3699;51.462;6.696;2024-01-11T04:46:14;57.40;;;25.90;;
7316;SDS011;3699;51.462;6.696;2024-01-11T04:48:42;58.77;;;25.30;;
7316;SDS011;3699;51.462;6.696;2024-01-11T04:51:09;65.33;;;26.27;;
7316;SDS011;3699;51.462;6.696;2024-01-11T04:53:36;63.70;;;25.73;;
7316;SDS011;3699;51.462;6.696;2024-01-11T04:56:03;48.60;;;24.47;;
7316;SDS011;3699;51.462;6.696;2024-01-11T04:58:31;58.93;;;27.40;;
7316;SDS011;3699;51.462;6.696;2024-01-11T05:00:58;62.13;;;27.53;;
7316;SDS011;3699;51.462;6.696;2024-01-11T05:03:25;61.37;;;26.53;;
7316;SDS011;3699;51.462;6.696;2024-01-11T05:05:52;62.60;;;25.97;;
7316;SDS011;3699;51.462;6.696;2024-01-11T05:08:19;58.10;;;26.47;;
7316;SDS011;3699;51.462;6.696;2024-01-11T05:10:46;61.93;;;26.53;;
7316;SDS011;3699;51.462;6.696;2024-01-11T05:13:12;51.50;;;26.03;;
7316;SDS011;3699;51.462;6.696;2024-01-11T05:15:40;56.83;;;26.60;;
7316;SDS011;3699;51.462;6.696;2024-01-11T05:18:07;65.77;;;28.63;;
7316;SDS011;3699;51.462;6.696;2024-01-11T05:20:34;55.30;;;26.47;;
7316;SDS011;3699;51.462;6.696;2024-01-11T05:23:00;44.67;;;23.70;;
7316;SDS011;3699;51.462;6.696;2024-01-11T05:25:27;56.43;;;25.27;;
7316;SDS011;3699;51.462;6.696;2024-01-11T05:27:58;66.53;;;27.97;;
7316;SDS011;3699;51.462;6.696;2024-01-11T05:30:25;61.00;;;27.33;;
7316;SDS011;3699;51.462;6.696;2024-01-11T05:32:53;62.67;;;28.73;;
7316;SDS011;3699;51.462;6.696;2024-01-11T05:35:20;64.67;;;27.43;;
7316;SDS011;3699;51.462;6.696;2024-01-11T05:37:49;58.17;;;26.53;;
7316;SDS011;3699;51.462;6.696;2024-01-11T05:40:16;71.43;;;27.03;;
7316;SDS011;3699;51.462;6.696;2024-01-11T05:42:42;61.57;;;27.23;;
7316;SDS011;3699;51.462;6.696;2024-01-11T05:45:09;59.83;;;25.00;;
7316;SDS011;3699;51.462;6.696;2024-01-11T05:47:36;71.90;;;28.80;;
7316;SDS011;3699;51.462;6.696;2024-01-11T05:50:05;56.27;;;25.47;;
7316;SDS011;3699;51.462;6.696;2024-01-11T05:52:32;61.77;;;26.73;;
7316;SDS011;3699;51.462;6.696;2024-01-11T05:54:59;64.00;;;27.50;;
7316;SDS011;3699;51.462;6.696;2024-01-11T05:57:25;57.70;;;26.87;;
7316;SDS011;3699;51.462;6.696;2024-01-11T05:59:52;61.40;;;27.00;;
7316;SDS011;3699;51.462;6.696;2024-01-11T06:02:19;54.73;;;25.23;;
7316;SDS011;3699;51.462;6.696;2024-01-11T06:04:47;57.30;;;26.47;;
7316;SDS011;3699;51.462;6.696;2024-01-11T06:07:15;56.50;;;26.23;;
7316;SDS011;3699;51.462;6.696;2024-01-11T06:09:42;50.57;;;24.63;;
7316;SDS011;3699;51.462;6.696;2024-01-11T06:12:09;62.10;;;27.20;;
7316;SDS011;3699;51.462;6.696;2024-01-11T06:14:36;56.53;;;24.73;;
7316;SDS011;3699;51.462;6.696;2024-01-11T06:17:03;51.30;;;23.77;;
7316;SDS011;3699;51.462;6.696;2024-01-11T06:19:30;57.70;;;25.20;;
7316;SDS011;3699;51.462;6.696;2024-01-11T06:21:56;57.70;;;24.97;;
7316;SDS011;3699;51.462;6.696;2024-01-11T06:24:24;56.53;;;24.83;;
7316;SDS011;3699;51.462;6.696;2024-01-11T06:26:51;56.27;;;26.47;;
7316;SDS011;3699;51.462;6.696;2024-01-11T06:29:18;61.80;;;29.60;;
7316;SDS011;3699;51.462;6.696;2024-01-11T06:31:44;56.93;;;27.40;;
7316;SDS011;3699;51.462;6.696;2024-01-11T06:34:11;51.77;;;27.10;;
7316;SDS011;3699;51.462;6.696;2024-01-11T06:36:38;49.93;;;23.27;;
7316;SDS011;3699;51.462;6.696;2024-01-11T06:39:05;54.10;;;24.07;;
7316;SDS011;3699;51.462;6.696;2024-01-11T06:41:33;55.30;;;24.77;;
7316;SDS011;3699;51.462;6.696;2024-01-11T06:43:59;57.13;;;24.97;;
7316;SDS011;3699;51.462;6.696;2024-01-11T06:46:26;59.90;;;24.67;;
7316;SDS011;3699;51.462;6.696;2024-01-11T06:48:53;54.60;;;24.70;;
7316;SDS011;3699;51.462;6.696;2024-01-11T06:51:20;66.20;;;24.23;;
7316;SDS011;3699;51.462;6.696;2024-01-11T06:53:47;49.80;;;24.47;;
7316;SDS011;3699;51.462;6.696;2024-01-11T06:56:15;57.50;;;24.80;;
7316;SDS011;3699;51.462;6.696;2024-01-11T06:58:44;54.50;;;24.37;;
7316;SDS011;3699;51.462;6.696;2024-01-11T07:01:11;66.97;;;25.80;;
7316;SDS011;3699;51.462;6.696;2024-01-11T07:03:38;61.37;;;25.63;;
7316;SDS011;3699;51.462;6.696;2024-01-11T07:06:06;57.67;;;25.20;;
7316;SDS011;3699;51.462;6.696;2024-01-11T07:08:33;60.93;;;26.97;;
7316;SDS011;3699;51.462;6.696;2024-01-11T07:11:00;63.40;;;26.03;;
7316;SDS011;3699;51.462;6.696;2024-01-11T07:13:27;64.90;;;27.27;;
7316;SDS011;3699;51.462;6.696;2024-01-11T07:15:55;58.33;;;25.50;;
7316;SDS011;3699;51.462;6.696;2024-01-11T07:18:23;53.03;;;24.13;;
7316;SDS011;3699;51.462;6.696;2024-01-11T07:20:50;59.50;;;25.87;;
7316;SDS011;3699;51.462;6.696;2024-01-11T07:23:16;57.90;;;27.20;;
7316;SDS011;3699;51.462;6.696;2024-01-11T07:25:43;68.17;;;26.23;;
7316;SDS011;3699;51.462;6.696;2024-01-11T07:28:10;55.80;;;25.33;;
7316;SDS011;3699;51.462;6.696;2024-01-11T07:30:37;64.07;;;29.03;;
7316;SDS011;3699;51.462;6.696;2024-01-11T07:33:06;62.90;;;26.67;;
7316;SDS011;3699;51.462;6.696;2024-01-11T07:35:32;61.37;;;27.27;;
7316;SDS011;3699;51.462;6.696;2024-01-11T07:37:59;62.27;;;26.90;;
7316;SDS011;3699;51.462;6.696;2024-01-11T07:40:26;61.50;;;26.60;;
7316;SDS011;3699;51.462;6.696;2024-01-11T07:42:53;70.03;;;26.43;;
7316;SDS011;3699;51.462;6.696;2024-01-11T07:45:20;52.67;;;26.07;;
7316;SDS011;3699;51.462;6.696;2024-01-11T07:47:47;51.73;;;25.57;;
7316;SDS011;3699;51.462;6.696;2024-01-11T07:50:15;62.37;;;27.13;;
7316;SDS011;3699;51.462;6.696;2024-01-11T07:52:42;53.60;;;26.80;;
7316;SDS011;3699;51.462;6.696;2024-01-11T07:55:09;53.10;;;24.87;;
7316;SDS011;3699;51.462;6.696;2024-01-11T07:57:37;59.53;;;25.40;;
7316;SDS011;3699;51.462;6.696;2024-01-11T08:00:05;61.83;;;27.90;;
7316;SDS011;3699;51.462;6.696;2024-01-11T08:02:32;54.07;;;27.17;;
7316;SDS011;3699;51.462;6.696;2024-01-11T08:04:59;56.93;;;25.40;;
7316;SDS011;3699;51.462;6.696;2024-01-11T08:07:27;67.07;;;26.13;;
7316;SDS011;3699;51.462;6.696;2024-01-11T08:09:55;59.47;;;26.67;;
7316;SDS011;3699;51.462;6.696;2024-01-11T08:12:22;53.43;;;25.83;;
7316;SDS011;3699;51.462;6.696;2024-01-11T08:14:49;73.90;;;28.23;;
7316;SDS011;3699;51.462;6.696;2024-01-11T08:17:16;55.50;;;26.33;;
7316;SDS011;3699;51.462;6.696;2024-01-11T08:19:43;56.83;;;26.30;;
7316;SDS011;3699;51.462;6.696;2024-01-11T08:22:10;61.10;;;25.87;;
7316;SDS011;3699;51.462;6.696;2024-01-11T08:24:38;60.20;;;27.97;;
7316;SDS011;3699;51.462;6.696;2024-01-11T08:27:05;60.97;;;25.53;;
7316;SDS011;3699;51.462;6.696;2024-01-11T08:29:32;54.37;;;26.80;;
7316;SDS011;3699;51.462;6.696;2024-01-11T08:31:58;55.53;;;26.23;;
7316;SDS011;3699;51.462;6.696;2024-01-11T08:34:26;52.83;;;24.60;;
7316;SDS011;3699;51.462;6.696;2024-01-11T08:36:53;48.40;;;24.03;;
7316;SDS011;3699;51.462;6.696;2024-01-11T08:39:20;57.57;;;26.03;;
7316;SDS011;3699;51.462;6.696;2024-01-11T08:41:49;54.33;;;23.70;;
7316;SDS011;3699;51.462;6.696;2024-01-11T08:44:17;57.60;;;27.40;;
7316;SDS011;3699;51.462;6.696;2024-01-11T08:46:44;58.33;;;25.37;;
7316;SDS011;3699;51.462;6.696;2024-01-11T08:49:10;65.17;;;25.53;;
7316;SDS011;3699;51.462;6.696;2024-01-11T08:51:38;56.23;;;27.20;;
7316;SDS011;3699;51.462;6.696;2024-01-11T08:54:04;65.60;;;27.03;;
7316;SDS011;3699;51.462;6.696;2024-01-11T08:56:33;54.07;;;24.33;;
7316;SDS011;3699;51.462;6.696;2024-01-11T08:59:02;62.70;;;26.90;;
7316;SDS011;3699;51.462;6.696;2024-01-11T09:01:28;56.40;;;24.27;;
7316;SDS011;3699;51.462;6.696;2024-01-11T09:03:55;56.57;;;27.47;;
7316;SDS011;3699;51.462;6.696;2024-01-11T09:06:23;53.97;;;24.47;;
7316;SDS011;3699;51.462;6.696;2024-01-11T09:08:50;58.77;;;26.70;;
7316;SDS011;3699;51.462;6.696;2024-01-11T09:11:19;59.03;;;26.17;;
7316;SDS011;3699;51.462;6.696;2024-01-11T09:13:46;56.60;;;26.70;;
7316;SDS011;3699;51.462;6.696;2024-01-11T09:16:15;57.53;;;27.00;;
7316;SDS011;3699;51.462;6.696;2024-01-11T09:18:42;59.50;;;26.07;;
7316;SDS011;3699;51.462;6.696;2024-01-11T09:21:10;61.67;;;27.80;;
7316;SDS011;3699;51.462;6.696;2024-01-11T09:23:39;67.70;;;28.37;;
7316;SDS011;3699;51.462;6.696;2024-01-11T09:26:06;69.73;;;28.33;;
7316;SDS011;3699;51.462;6.696;2024-01-11T09:28:33;62.07;;;29.07;;
7316;SDS011;3699;51.462;6.696;2024-01-11T09:30:59;52.83;;;27.17;;
7316;SDS011;3699;51.462;6.696;2024-01-11T09:33:28;64.87;;;27.33;;
7316;SDS011;3699;51.462;6.696;2024-01-11T09:35:55;60.70;;;28.37;;
7316;SDS011;3699;51.462;6.696;2024-01-11T09:38:21;65.10;;;29.60;;
7316;SDS011;3699;51.462;6.696;2024-01-11T09:40:48;59.07;;;28.33;;
7316;SDS011;3699;51.462;6.696;2024-01-11T09:43:23;59.00;;;29.03;;
7316;SDS011;3699;51.462;6.696;2024-01-11T09:45:51;62.30;;;28.37;;
7316;SDS011;3699;51.462;6.696;2024-01-11T09:48:19;103.93;;;28.63;;
7316;SDS011;3699;51.462;6.696;2024-01-11T09:50:48;57.03;;;26.90;;
7316;SDS011;3699;51.462;6.696;2024-01-11T09:53:16;57.40;;;28.37;;
7316;SDS011;3699;51.462;6.696;2024-01-11T09:55:45;57.63;;;26.80;;
7316;SDS011;3699;51.462;6.696;2024-01-11T09:58:13;64.87;;;28.07;;
7316;SDS011;3699;51.462;6.696;2024-01-11T10:00:40;61.67;;;27.37;;
7316;SDS011;3699;51.462;6.696;2024-01-11T10:03:08;53.63;;;26.17;;
7316;SDS011;3699;51.462;6.696;2024-01-11T10:05:36;59.03;;;26.23;;
7316;SDS011;3699;51.462;6.696;2024-01-11T10:08:05;59.40;;;26.33;;
7316;SDS011;3699;51.462;6.696;2024-01-11T10:10:32;60.20;;;30.33;;
7316;SDS011;3699;51.462;6.696;2024-01-11T10:12:59;58.17;;;28.40;;
7316;SDS011;3699;51.462;6.696;2024-01-11T10:15:25;57.80;;;27.83;;
7316;SDS011;3699;51.462;6.696;2024-01-11T10:17:52;60.20;;;29.13;;
7316;SDS011;3699;51.462;6.696;2024-01-11T10:20:19;60.57;;;29.50;;
7316;SDS011;3699;51.462;6.696;2024-01-11T10:22:48;53.10;;;26.83;;
7316;SDS011;3699;51.462;6.696;2024-01-11T10:25:17;61.43;;;28.50;;
7316;SDS011;3699;51.462;6.696;2024-01-11T10:27:44;55.67;;;26.80;;
7316;SDS011;3699;51.462;6.696;2024-01-11T10:30:11;55.30;;;26.50;;
7316;SDS011;3699;51.462;6.696;2024-01-11T10:32:41;67.43;;;31.07;;
7316;SDS011;3699;51.462;6.696;2024-01-11T10:35:07;66.63;;;31.57;;
7316;SDS011;3699;51.462;6.696;2024-01-11T10:37:35;85.07;;;38.80;;
7316;SDS011;3699;51.462;6.696;2024-01-11T10:40:04;56.70;;;25.27;;
7316;SDS011;3699;51.462;6.696;2024-01-11T10:42:37;48.23;;;23.63;;
7316;SDS011;3699;51.462;6.696;2024-01-11T10:45:08;53.33;;;26.23;;
7316;SDS011;3699;51.462;6.696;2024-01-11T10:47:39;46.13;;;23.93;;
7316;SDS011;3699;51.462;6.696;2024-01-11T10:50:14;47.67;;;23.93;;
7316;SDS011;3699;51.462;6.696;2024-01-11T10:52:43;46.47;;;23.57;;
7316;SDS011;3699;51.462;6.696;2024-01-11T10:55:29;49.87;;;23.40;;
7316;SDS011;3699;51.462;6.696;2024-01-11T10:58:00;47.67;;;24.73;;
7316;SDS011;3699;51.462;6.696;2024-01-11T11:00:28;49.20;;;24.37;;
7316;SDS011;3699;51.462;6.696;2024-01-11T11:02:56;52.73;;;24.93;;
7316;SDS011;3699;51.462;6.696;2024-01-11T11:05:25;47.47;;;24.73;;
7316;SDS011;3699;51.462;6.696;2024-01-11T11:07:54;52.03;;;25.40;;
7316;SDS011;3699;51.462;6.696;2024-01-11T11:10:22;55.00;;;25.63;;
7316;SDS011;3699;51.462;6.696;2024-01-11T11:12:51;52.47;;;25.20;;
7316;SDS011;3699;51.462;6.696;2024-01-11T11:15:21;64.73;;;24.77;;
7316;SDS011;3699;51.462;6.696;2024-01-11T11:17:49;56.53;;;24.47;;
7316;SDS011;3699;51.462;6.696;2024-01-11T11:20:18;52.77;;;24.50;;
7316;SDS011;3699;51.462;6.696;2024-01-11T11:22:47;48.73;;;23.87;;
7316;SDS011;3699;51.462;6.696;2024-01-11T11:25:28;47.83;;;23.23;;
7316;SDS011;3699;51.462;6.696;2024-01-11T11:27:57;57.40;;;26.13;;
7316;SDS011;3699;51.462;6.696;2024-01-11T11:30:25;49.97;;;25.93;;
7316;SDS011;3699;51.462;6.696;2024-01-11T11:32:52;49.97;;;24.07;;
7316;SDS011;3699;51.462;6.696;2024-01-11T11:35:22;46.10;;;23.83;;
7316;SDS011;3699;51.462;6.696;2024-01-11T11:37:53;45.70;;;24.43;;
7316;SDS011;3699;51.462;6.696;2024-01-11T11:40:22;51.57;;;25.30;;
7316;SDS011;3699;51.462;6.696;2024-01-11T11:43:00;48.53;;;24.83;;
7316;SDS011;3699;51.462;6.696;2024-01-11T11:45:30;44.43;;;22.53;;
7316;SDS011;3699;51.462;6.696;2024-01-11T11:51:29;44.03;;;22.57;;
7316;SDS011;3699;51.462;6.696;2024-01-11T11:53:55;51.37;;;22.93;;
7316;SDS011;3699;51.462;6.696;2024-01-11T11:56:23;44.70;;;22.60;;
7316;SDS011;3699;51.462;6.696;2024-01-11T11:58:51;47.13;;;24.07;;
7316;SDS011;3699;51.462;6.696;2024-01-11T12:01:21;47.33;;;23.97;;
7316;SDS011;3699;51.462;6.696;2024-01-11T12:03:48;43.77;;;23.13;;
7316;SDS011;3699;51.462;6.696;2024-01-11T12:06:18;59.87;;;31.50;;
7316;SDS011;3699;51.462;6.696;2024-01-11T12:08:48;47.60;;;24.47;;
7316;SDS011;3699;51.462;6.696;2024-01-11T12:11:15;52.23;;;21.83;;
7316;SDS011;3699;51.462;6.696;2024-01-11T12:13:44;46.07;;;22.90;;
7316;SDS011;3699;51.462;6.696;2024-01-11T12:16:13;44.33;;;23.37;;
7316;SDS011;3699;51.462;6.696;2024-01-11T12:18:41;45.47;;;23.13;;
7316;SDS011;3699;51.462;6.696;2024-01-11T12:21:09;42.10;;;22.37;;
7316;SDS011;3699;51.462;6.696;2024-01-11T12:23:36;62.07;;;29.60;;
7316;SDS011;3699;51.462;6.696;2024-01-11T12:26:06;45.00;;;24.00;;
7316;SDS011;3699;51.462;6.696;2024-01-11T12:28:37;49.80;;;27.43;;
7316;SDS011;3699;51.462;6.696;2024-01-11T12:31:04;47.70;;;21.77;;
7316;SDS011;3699;51.462;6.696;2024-01-11T12:33:31;46.83;;;24.00;;
7316;SDS011;3699;51.462;6.696;2024-01-11T12:36:01;46.37;;;24.30;;
7316;SDS011;3699;51.462;6.696;2024-01-11T12:38:28;44.73;;;23.43;;
7316;SDS011;3699;51.462;6.696;2024-01-11T12:40:54;37.57;;;20.23;;
7316;SDS011;3699;51.462;6.696;2024-01-11T12:43:21;56.27;;;30.67;;
7316;SDS011;3699;51.462;6.696;2024-01-11T12:45:49;48.60;;;27.27;;
7316;SDS011;3699;51.462;6.696;2024-01-11T12:48:15;36.87;;;19.17;;
7316;SDS011;3699;51.462;6.696;2024-01-11T12:50:43;35.23;;;19.03;;
7316;SDS011;3699;51.462;6.696;2024-01-11T12:53:12;33.77;;;18.40;;
7316;SDS011;3699;51.462;6.696;2024-01-11T12:55:43;53.60;;;29.67;;
7316;SDS011;3699;51.462;6.696;2024-01-11T12:58:10;38.27;;;19.97;;
7316;SDS011;3699;51.462;6.696;2024-01-11T13:00:37;36.47;;;18.20;;
7316;SDS011;3699;51.462;6.696;2024-01-11T13:03:04;31.43;;;17.50;;
7316;SDS011;3699;51.462;6.696;2024-01-11T13:05:31;39.00;;;20.73;;
7316;SDS011;3699;51.462;6.696;2024-01-11T13:08:00;33.97;;;15.93;;
7316;SDS011;3699;51.462;6.696;2024-01-11T13:10:30;33.27;;;17.83;;
7316;SDS011;3699;51.462;6.696;2024-01-11T13:12:57;43.47;;;26.43;;
7316;SDS011;3699;51.462;6.696;2024-01-11T13:15:24;45.50;;;23.43;;
7316;SDS011;3699;51.462;6.696;2024-01-11T13:17:51;54.37;;;32.60;;
7316;SDS011;3699;51.462;6.696;2024-01-11T13:20:18;43.13;;;25.23;;
7316;SDS011;3699;51.462;6.696;2024-01-11T13:22:45;51.70;;;30.80;;
7316;SDS011;3699;51.462;6.696;2024-01-11T13:25:12;73.93;;;42.53;;
7316;SDS011;3699;51.462;6.696;2024-01-11T13:27:40;57.53;;;33.30;;
7316;SDS011;3699;51.462;6.696;2024-01-11T13:30:07;40.17;;;22.40;;
7316;SDS011;3699;51.462;6.696;2024-01-11T13:32:34;34.20;;;19.27;;
7316;SDS011;3699;51.462;6.696;2024-01-11T13:35:01;32.97;;;17.60;;
7316;SDS011;3699;51.462;6.696;2024-01-11T13:37:28;37.83;;;18.30;;
7316;SDS011;3699;51.462;6.696;2024-01-11T13:39:55;39.30;;;22.03;;
7316;SDS011;3699;51.462;6.696;2024-01-11T13:42:22;32.33;;;16.80;;
7316;SDS011;3699;51.462;6.696;2024-01-11T13:44:51;33.10;;;17.50;;
7316;SDS011;3699;51.462;6.696;2024-01-11T13:47:18;36.67;;;17.10;;
7316;SDS011;3699;51.462;6.696;2024-01-11T13:49:45;36.03;;;19.40;;
7316;SDS011;3699;51.462;6.696;2024-01-11T13:52:12;31.77;;;17.07;;
7316;SDS011;3699;51.462;6.696;2024-01-11T13:54:38;33.73;;;18.60;;
7316;SDS011;3699;51.462;6.696;2024-01-11T13:57:05;33.13;;;16.90;;
7316;SDS011;3699;51.462;6.696;2024-01-11T13:59:32;35.50;;;17.97;;
7316;SDS011;3699;51.462;6.696;2024-01-11T14:02:00;30.23;;;16.17;;
7316;SDS011;3699;51.462;6.696;2024-01-11T14:04:27;32.60;;;16.50;;
7316;SDS011;3699;51.462;6.696;2024-01-11T14:06:53;33.20;;;17.13;;
7316;SDS011;3699;51.462;6.696;2024-01-11T14:09:20;32.17;;;17.47;;
7316;SDS011;3699;51.462;6.696;2024-01-11T14:11:48;31.53;;;16.10;;
7316;SDS011;3699;51.462;6.696;2024-01-11T14:14:25;31.93;;;16.30;;
7316;SDS011;3699;51.462;6.696;2024-01-11T14:16:52;31.57;;;15.50;;
7316;SDS011;3699;51.462;6.696;2024-01-11T14:19:20;31.10;;;16.40;;
7316;SDS011;3699;51.462;6.696;2024-01-11T14:21:47;29.03;;;16.90;;
7316;SDS011;3699;51.462;6.696;2024-01-11T14:24:14;28.33;;;15.40;;
7316;SDS011;3699;51.462;6.696;2024-01-11T14:26:41;33.23;;;16.33;;
7316;SDS011;3699;51.462;6.696;2024-01-11T14:29:08;31.67;;;15.63;;
7316;SDS011;3699;51.462;6.696;2024-01-11T14:31:36;28.83;;;15.20;;
7316;SDS011;3699;51.462;6.696;2024-01-11T14:34:04;30.47;;;16.40;;
7316;SDS011;3699;51.462;6.696;2024-01-11T14:36:32;25.47;;;14.87;;
7316;SDS011;3699;51.462;6.696;2024-01-11T14:38:59;28.67;;;15.03;;
7316;SDS011;3699;51.462;6.696;2024-01-11T14:41:28;25.50;;;13.60;;
7316;SDS011;3699;51.462;6.696;2024-01-11T14:43:55;25.63;;;13.53;;
7316;SDS011;3699;51.462;6.696;2024-01-11T14:46:22;22.53;;;13.60;;
7316;SDS011;3699;51.462;6.696;2024-01-11T14:48:49;23.97;;;15.03;;
7316;SDS011;3699;51.462;6.696;2024-01-11T14:51:16;24.90;;;13.33;;
7316;SDS011;3699;51.462;6.696;2024-01-11T14:53:44;24.93;;;13.50;;
7316;SDS011;3699;51.462;6.696;2024-01-11T14:56:11;28.70;;;15.67;;